Overview Statistics Trail Chart Weather Telemetry Raw packets
 

This is the latest recevied weather packets stored in our database for station/object KI4NG. If no packets are shown the sender has not sent any weather packets the latest 10 day(s).

<< 80 81 82 83 84 85 86 >>
Time Temp. Humidity Pressure Rain* Wind** Luminosity Snow
1788037382 31.11° C 57% 1021 hPa 0 mm - 475 W/m² -
1788037081 31.11° C 62% 1020.9 hPa 0 mm - 489 W/m² -
1788036776 31.11° C 58% 1021.1 hPa 0 mm - 169 W/m² -
1788036474 30.56° C 60% 1021.4 hPa 0 mm - 521 W/m² -
1788036169 31.11° C 59% 1021.3 hPa 0 mm - 538 W/m² -
1788035868 31.67° C 63% 1021.3 hPa 0 mm - 563 W/m² -
1788035563 30.56° C 61% 1021.4 hPa 0 mm - 575 W/m² -
1788035258 30.56° C 61% 1021.3 hPa 0 mm - 197 W/m² -
1788034954 32.78° C 56% 1021.4 hPa 0 mm - 624 W/m² -
1788034650 31.67° C 57% 1021.4 hPa 0 mm - 694 W/m² -
1788034347 31.67° C 61% 1021.6 hPa 0 mm - 643 W/m² -
1788034046 31.67° C 57% 1021.5 hPa 0 mm - 665 W/m² -
1788033746 30.56° C 58% 1021.7 hPa 0 mm - 672 W/m² -
1788033445 31.11° C 56% 1021.6 hPa 0 mm - 665 W/m² -
1788033141 31.11° C 55% 1021.9 hPa 0 mm - 551 W/m² -
1788032835 31.11° C 58% 1021.9 hPa 0 mm - 471 W/m² -
1788032535 29.44° C 64% 1022.1 hPa 0 mm - 563 W/m² -
1788032230 30° C 60% 1022 hPa 0 mm - 208 W/m² -
1788031927 30.56° C 61% 1021.8 hPa 0 mm - 730 W/m² -
1788031621 31.11° C 59% 1021.9 hPa 0 mm - 362 W/m² -
1788031315 30.56° C 62% 1022.2 hPa 0 mm - 688 W/m² -
1788031014 29.44° C 64% 1022.1 hPa 0 mm - 766 W/m² -
1788030709 28.89° C 66% 1022 hPa 0 mm - 767 W/m² -
1788030403 28.89° C 65% 1022.2 hPa 0 mm - 203 W/m² -
1788030099 28.89° C 65% 1022.3 hPa 0 mm - 207 W/m² -

* Rain latest hour (hover to see other rain measurements)
** Current wind speed in m/s (hover to see current wind gust speed)